<?xml version="1.0" encoding="UTF-8" standalone="no" ?>
<gpx xmlns="http://www.topografix.com/GPX/1/1" xmlns:xsi="http://www.w3.org/2001/XMLSchema-instance" xsi:schemaLocation="http://www.topografix.com/GPX/1/1 http://www.topografix.com/GPX/1/1/gpx.xsd" version="1.1" creator="VisuGPX - https://www.visugpx.com">
  <metadata>
    <name>Les bois sur les contreforts du Mont Aigoual</name>
    <desc><![CDATA[#fait]]></desc>
  </metadata>
  <wpt lat="44.12115" lon="3.57942">
    <ele>1548</ele>
    <name><![CDATA[Parking de l'observatoire]]></name>
  </wpt>
  <wpt lat="44.11951" lon="3.58697">
    <ele>1495</ele>
    <name><![CDATA[D269]]></name>
  </wpt>
  <wpt lat="44.11987" lon="3.59119">
    <ele>1490</ele>
    <name><![CDATA[Route carrossable]]></name>
  </wpt>
  <wpt lat="44.13507" lon="3.60071">
    <ele>1188</ele>
    <name><![CDATA[Col de l'Estrade]]></name>
  </wpt>
  <wpt lat="44.14663" lon="3.59058">
    <ele>1265</ele>
    <name><![CDATA[Carrefour route carrossable]]></name>
  </wpt>
  <wpt lat="44.12113" lon="3.57952">
    <ele>1547</ele>
    <name><![CDATA[Parking de l'observatoire]]></name>
  </wpt>
  <trk>
    <name><![CDATA[Randonnée dans les bois sur les contreforts du Mont Aigoual]]></name>
    <trkseg>
      <trkpt lat="44.12115" lon="3.57942">
        <ele>1548</ele>
        <time>2021-06-06T07:18:00+02:00</time>
      </trkpt>
      <trkpt lat="44.12116" lon="3.57992">
        <ele>1543</ele>
        <time>2021-06-06T07:18:05+02:00</time>
      </trkpt>
      <trkpt lat="44.12102" lon="3.58136">
        <ele>1540</ele>
        <time>2021-06-06T07:18:10+02:00</time>
      </trkpt>
      <trkpt lat="44.12084" lon="3.58274">
        <ele>1536</ele>
        <time>2021-06-06T07:18:15+02:00</time>
      </trkpt>
      <trkpt lat="44.12001" lon="3.58535">
        <ele>1513</ele>
        <time>2021-06-06T07:18:20+02:00</time>
      </trkpt>
      <trkpt lat="44.11951" lon="3.58697">
        <ele>1495</ele>
        <time>2021-06-06T07:18:25+02:00</time>
      </trkpt>
      <trkpt lat="44.11906" lon="3.58749">
        <ele>1495</ele>
        <time>2021-06-06T07:18:30+02:00</time>
      </trkpt>
      <trkpt lat="44.11802" lon="3.58835">
        <ele>1495</ele>
        <time>2021-06-06T07:18:35+02:00</time>
      </trkpt>
      <trkpt lat="44.11763" lon="3.589">
        <ele>1497</ele>
        <time>2021-06-06T07:18:40+02:00</time>
      </trkpt>
      <trkpt lat="44.11763" lon="3.58966">
        <ele>1497</ele>
        <time>2021-06-06T07:18:45+02:00</time>
      </trkpt>
      <trkpt lat="44.11782" lon="3.59054">
        <ele>1491</ele>
        <time>2021-06-06T07:18:50+02:00</time>
      </trkpt>
      <trkpt lat="44.11797" lon="3.59088">
        <ele>1488</ele>
        <time>2021-06-06T07:18:55+02:00</time>
      </trkpt>
      <trkpt lat="44.11863" lon="3.59101">
        <ele>1497</ele>
        <time>2021-06-06T07:19:00+02:00</time>
      </trkpt>
      <trkpt lat="44.11912" lon="3.59083">
        <ele>1508</ele>
        <time>2021-06-06T07:19:05+02:00</time>
      </trkpt>
      <trkpt lat="44.11926" lon="3.59033">
        <ele>1509</ele>
        <time>2021-06-06T07:19:10+02:00</time>
      </trkpt>
      <trkpt lat="44.11926" lon="3.5902">
        <ele>1510</ele>
        <time>2021-06-06T07:19:15+02:00</time>
      </trkpt>
      <trkpt lat="44.11959" lon="3.58997">
        <ele>1501</ele>
        <time>2021-06-06T07:19:20+02:00</time>
      </trkpt>
      <trkpt lat="44.11987" lon="3.59119">
        <ele>1490</ele>
        <time>2021-06-06T07:19:25+02:00</time>
      </trkpt>
      <trkpt lat="44.12007" lon="3.59143">
        <ele>1485</ele>
        <time>2021-06-06T07:19:30+02:00</time>
      </trkpt>
      <trkpt lat="44.12008" lon="3.59166">
        <ele>1483</ele>
        <time>2021-06-06T07:19:35+02:00</time>
      </trkpt>
      <trkpt lat="44.11999" lon="3.59187">
        <ele>1477</ele>
        <time>2021-06-06T07:19:40+02:00</time>
      </trkpt>
      <trkpt lat="44.11976" lon="3.59203">
        <ele>1465</ele>
        <time>2021-06-06T07:19:45+02:00</time>
      </trkpt>
      <trkpt lat="44.11974" lon="3.59221">
        <ele>1457</ele>
        <time>2021-06-06T07:19:50+02:00</time>
      </trkpt>
      <trkpt lat="44.11987" lon="3.59242">
        <ele>1453</ele>
        <time>2021-06-06T07:19:55+02:00</time>
      </trkpt>
      <trkpt lat="44.12005" lon="3.59231">
        <ele>1462</ele>
        <time>2021-06-06T07:20:00+02:00</time>
      </trkpt>
      <trkpt lat="44.12057" lon="3.59221">
        <ele>1465</ele>
        <time>2021-06-06T07:20:05+02:00</time>
      </trkpt>
      <trkpt lat="44.12253" lon="3.59192">
        <ele>1449</ele>
        <time>2021-06-06T07:20:10+02:00</time>
      </trkpt>
      <trkpt lat="44.12337" lon="3.59187">
        <ele>1438</ele>
        <time>2021-06-06T07:20:15+02:00</time>
      </trkpt>
      <trkpt lat="44.12346" lon="3.59192">
        <ele>1438</ele>
        <time>2021-06-06T07:20:20+02:00</time>
      </trkpt>
      <trkpt lat="44.12315" lon="3.59229">
        <ele>1439</ele>
        <time>2021-06-06T07:20:25+02:00</time>
      </trkpt>
      <trkpt lat="44.12199" lon="3.59344">
        <ele>1433</ele>
        <time>2021-06-06T07:20:30+02:00</time>
      </trkpt>
      <trkpt lat="44.1215" lon="3.5938">
        <ele>1426</ele>
        <time>2021-06-06T07:20:35+02:00</time>
      </trkpt>
      <trkpt lat="44.12078" lon="3.59385">
        <ele>1425</ele>
        <time>2021-06-06T07:20:40+02:00</time>
      </trkpt>
      <trkpt lat="44.12019" lon="3.59396">
        <ele>1422</ele>
        <time>2021-06-06T07:20:45+02:00</time>
      </trkpt>
      <trkpt lat="44.11949" lon="3.59432">
        <ele>1397</ele>
        <time>2021-06-06T07:20:50+02:00</time>
      </trkpt>
      <trkpt lat="44.11915" lon="3.59445">
        <ele>1386</ele>
        <time>2021-06-06T07:20:55+02:00</time>
      </trkpt>
      <trkpt lat="44.11917" lon="3.59474">
        <ele>1386</ele>
        <time>2021-06-06T07:21:00+02:00</time>
      </trkpt>
      <trkpt lat="44.11935" lon="3.59469">
        <ele>1390</ele>
        <time>2021-06-06T07:21:05+02:00</time>
      </trkpt>
      <trkpt lat="44.12014" lon="3.5943">
        <ele>1414</ele>
        <time>2021-06-06T07:21:10+02:00</time>
      </trkpt>
      <trkpt lat="44.12082" lon="3.59414">
        <ele>1415</ele>
        <time>2021-06-06T07:21:15+02:00</time>
      </trkpt>
      <trkpt lat="44.12109" lon="3.5943">
        <ele>1410</ele>
        <time>2021-06-06T07:21:20+02:00</time>
      </trkpt>
      <trkpt lat="44.12127" lon="3.59477">
        <ele>1395</ele>
        <time>2021-06-06T07:21:25+02:00</time>
      </trkpt>
      <trkpt lat="44.12179" lon="3.59482">
        <ele>1394</ele>
        <time>2021-06-06T07:21:30+02:00</time>
      </trkpt>
      <trkpt lat="44.12317" lon="3.59419">
        <ele>1393</ele>
        <time>2021-06-06T07:21:35+02:00</time>
      </trkpt>
      <trkpt lat="44.12429" lon="3.59354">
        <ele>1396</ele>
        <time>2021-06-06T07:21:40+02:00</time>
      </trkpt>
      <trkpt lat="44.12443" lon="3.59349">
        <ele>1399</ele>
        <time>2021-06-06T07:21:45+02:00</time>
      </trkpt>
      <trkpt lat="44.12465" lon="3.59354">
        <ele>1399</ele>
        <time>2021-06-06T07:21:50+02:00</time>
      </trkpt>
      <trkpt lat="44.1249" lon="3.59393">
        <ele>1388</ele>
        <time>2021-06-06T07:21:55+02:00</time>
      </trkpt>
      <trkpt lat="44.12538" lon="3.59448">
        <ele>1382</ele>
        <time>2021-06-06T07:22:00+02:00</time>
      </trkpt>
      <trkpt lat="44.12544" lon="3.59526">
        <ele>1363</ele>
        <time>2021-06-06T07:22:05+02:00</time>
      </trkpt>
      <trkpt lat="44.12547" lon="3.59555">
        <ele>1358</ele>
        <time>2021-06-06T07:22:10+02:00</time>
      </trkpt>
      <trkpt lat="44.12592" lon="3.59599">
        <ele>1364</ele>
        <time>2021-06-06T07:22:15+02:00</time>
      </trkpt>
      <trkpt lat="44.12644" lon="3.59605">
        <ele>1363</ele>
        <time>2021-06-06T07:22:20+02:00</time>
      </trkpt>
      <trkpt lat="44.12689" lon="3.59581">
        <ele>1361</ele>
        <time>2021-06-06T07:22:25+02:00</time>
      </trkpt>
      <trkpt lat="44.12702" lon="3.59547">
        <ele>1362</ele>
        <time>2021-06-06T07:22:30+02:00</time>
      </trkpt>
      <trkpt lat="44.12728" lon="3.5944">
        <ele>1362</ele>
        <time>2021-06-06T07:22:35+02:00</time>
      </trkpt>
      <trkpt lat="44.12752" lon="3.59375">
        <ele>1365</ele>
        <time>2021-06-06T07:22:40+02:00</time>
      </trkpt>
      <trkpt lat="44.12782" lon="3.59357">
        <ele>1361</ele>
        <time>2021-06-06T07:22:45+02:00</time>
      </trkpt>
      <trkpt lat="44.12808" lon="3.59341">
        <ele>1358</ele>
        <time>2021-06-06T07:22:50+02:00</time>
      </trkpt>
      <trkpt lat="44.12829" lon="3.59312">
        <ele>1361</ele>
        <time>2021-06-06T07:22:55+02:00</time>
      </trkpt>
      <trkpt lat="44.12876" lon="3.59291">
        <ele>1360</ele>
        <time>2021-06-06T07:23:00+02:00</time>
      </trkpt>
      <trkpt lat="44.12937" lon="3.59299">
        <ele>1354</ele>
        <time>2021-06-06T07:23:05+02:00</time>
      </trkpt>
      <trkpt lat="44.12975" lon="3.59341">
        <ele>1345</ele>
        <time>2021-06-06T07:23:10+02:00</time>
      </trkpt>
      <trkpt lat="44.13023" lon="3.59414">
        <ele>1332</ele>
        <time>2021-06-06T07:23:15+02:00</time>
      </trkpt>
      <trkpt lat="44.13079" lon="3.59453">
        <ele>1333</ele>
        <time>2021-06-06T07:23:20+02:00</time>
      </trkpt>
      <trkpt lat="44.13131" lon="3.59453">
        <ele>1326</ele>
        <time>2021-06-06T07:23:25+02:00</time>
      </trkpt>
      <trkpt lat="44.13185" lon="3.59417">
        <ele>1323</ele>
        <time>2021-06-06T07:23:30+02:00</time>
      </trkpt>
      <trkpt lat="44.13206" lon="3.59367">
        <ele>1331</ele>
        <time>2021-06-06T07:23:35+02:00</time>
      </trkpt>
      <trkpt lat="44.13241" lon="3.59328">
        <ele>1332</ele>
        <time>2021-06-06T07:23:40+02:00</time>
      </trkpt>
      <trkpt lat="44.13289" lon="3.59312">
        <ele>1335</ele>
        <time>2021-06-06T07:23:45+02:00</time>
      </trkpt>
      <trkpt lat="44.13333" lon="3.59328">
        <ele>1329</ele>
        <time>2021-06-06T07:23:50+02:00</time>
      </trkpt>
      <trkpt lat="44.1338" lon="3.59359">
        <ele>1325</ele>
        <time>2021-06-06T07:23:55+02:00</time>
      </trkpt>
      <trkpt lat="44.13425" lon="3.59427">
        <ele>1312</ele>
        <time>2021-06-06T07:24:00+02:00</time>
      </trkpt>
      <trkpt lat="44.13496" lon="3.5949">
        <ele>1311</ele>
        <time>2021-06-06T07:24:05+02:00</time>
      </trkpt>
      <trkpt lat="44.13498" lon="3.59505">
        <ele>1307</ele>
        <time>2021-06-06T07:24:10+02:00</time>
      </trkpt>
      <trkpt lat="44.1357" lon="3.59532">
        <ele>1305</ele>
        <time>2021-06-06T07:24:15+02:00</time>
      </trkpt>
      <trkpt lat="44.13678" lon="3.59526">
        <ele>1296</ele>
        <time>2021-06-06T07:24:20+02:00</time>
      </trkpt>
      <trkpt lat="44.13734" lon="3.59479">
        <ele>1295</ele>
        <time>2021-06-06T07:24:25+02:00</time>
      </trkpt>
      <trkpt lat="44.13766" lon="3.5943">
        <ele>1298</ele>
        <time>2021-06-06T07:24:30+02:00</time>
      </trkpt>
      <trkpt lat="44.13793" lon="3.59398">
        <ele>1295</ele>
        <time>2021-06-06T07:24:35+02:00</time>
      </trkpt>
      <trkpt lat="44.13809" lon="3.5938">
        <ele>1292</ele>
        <time>2021-06-06T07:24:40+02:00</time>
      </trkpt>
      <trkpt lat="44.13816" lon="3.59391">
        <ele>1287</ele>
        <time>2021-06-06T07:24:45+02:00</time>
      </trkpt>
      <trkpt lat="44.13782" lon="3.59443">
        <ele>1288</ele>
        <time>2021-06-06T07:24:50+02:00</time>
      </trkpt>
      <trkpt lat="44.13714" lon="3.5956">
        <ele>1276</ele>
        <time>2021-06-06T07:24:55+02:00</time>
      </trkpt>
      <trkpt lat="44.13619" lon="3.59662">
        <ele>1263</ele>
        <time>2021-06-06T07:25:00+02:00</time>
      </trkpt>
      <trkpt lat="44.13558" lon="3.59688">
        <ele>1254</ele>
        <time>2021-06-06T07:25:05+02:00</time>
      </trkpt>
      <trkpt lat="44.13498" lon="3.59659">
        <ele>1252</ele>
        <time>2021-06-06T07:25:10+02:00</time>
      </trkpt>
      <trkpt lat="44.13453" lon="3.59628">
        <ele>1255</ele>
        <time>2021-06-06T07:25:15+02:00</time>
      </trkpt>
      <trkpt lat="44.13403" lon="3.59628">
        <ele>1246</ele>
        <time>2021-06-06T07:25:20+02:00</time>
      </trkpt>
      <trkpt lat="44.13358" lon="3.59605">
        <ele>1245</ele>
        <time>2021-06-06T07:25:25+02:00</time>
      </trkpt>
      <trkpt lat="44.13315" lon="3.59584">
        <ele>1247</ele>
        <time>2021-06-06T07:25:30+02:00</time>
      </trkpt>
      <trkpt lat="44.13295" lon="3.59576">
        <ele>1254</ele>
        <time>2021-06-06T07:25:35+02:00</time>
      </trkpt>
      <trkpt lat="44.13261" lon="3.59607">
        <ele>1253</ele>
        <time>2021-06-06T07:25:40+02:00</time>
      </trkpt>
      <trkpt lat="44.13247" lon="3.59714">
        <ele>1235</ele>
        <time>2021-06-06T07:25:45+02:00</time>
      </trkpt>
      <trkpt lat="44.13198" lon="3.59803">
        <ele>1226</ele>
        <time>2021-06-06T07:25:50+02:00</time>
      </trkpt>
      <trkpt lat="44.13143" lon="3.59837">
        <ele>1220</ele>
        <time>2021-06-06T07:25:55+02:00</time>
      </trkpt>
      <trkpt lat="44.13098" lon="3.59845">
        <ele>1216</ele>
        <time>2021-06-06T07:26:00+02:00</time>
      </trkpt>
      <trkpt lat="44.13069" lon="3.59811">
        <ele>1226</ele>
        <time>2021-06-06T07:26:05+02:00</time>
      </trkpt>
      <trkpt lat="44.13049" lon="3.59787">
        <ele>1232</ele>
        <time>2021-06-06T07:26:10+02:00</time>
      </trkpt>
      <trkpt lat="44.13026" lon="3.598">
        <ele>1230</ele>
        <time>2021-06-06T07:26:15+02:00</time>
      </trkpt>
      <trkpt lat="44.13033" lon="3.59858">
        <ele>1222</ele>
        <time>2021-06-06T07:26:20+02:00</time>
      </trkpt>
      <trkpt lat="44.13058" lon="3.59893">
        <ele>1212</ele>
        <time>2021-06-06T07:26:25+02:00</time>
      </trkpt>
      <trkpt lat="44.13053" lon="3.59938">
        <ele>1209</ele>
        <time>2021-06-06T07:26:30+02:00</time>
      </trkpt>
      <trkpt lat="44.13001" lon="3.59987">
        <ele>1212</ele>
        <time>2021-06-06T07:26:35+02:00</time>
      </trkpt>
      <trkpt lat="44.12999" lon="3.60032">
        <ele>1212</ele>
        <time>2021-06-06T07:26:40+02:00</time>
      </trkpt>
      <trkpt lat="44.13015" lon="3.60037">
        <ele>1212</ele>
        <time>2021-06-06T07:26:45+02:00</time>
      </trkpt>
      <trkpt lat="44.13056" lon="3.6">
        <ele>1206</ele>
        <time>2021-06-06T07:26:50+02:00</time>
      </trkpt>
      <trkpt lat="44.13089" lon="3.59995">
        <ele>1204</ele>
        <time>2021-06-06T07:26:55+02:00</time>
      </trkpt>
      <trkpt lat="44.1313" lon="3.59959">
        <ele>1203</ele>
        <time>2021-06-06T07:27:00+02:00</time>
      </trkpt>
      <trkpt lat="44.1324" lon="3.59932">
        <ele>1198</ele>
        <time>2021-06-06T07:27:05+02:00</time>
      </trkpt>
      <trkpt lat="44.13346" lon="3.59893">
        <ele>1194</ele>
        <time>2021-06-06T07:27:10+02:00</time>
      </trkpt>
      <trkpt lat="44.13367" lon="3.59883">
        <ele>1192</ele>
        <time>2021-06-06T07:27:15+02:00</time>
      </trkpt>
      <trkpt lat="44.13389" lon="3.59896">
        <ele>1191</ele>
        <time>2021-06-06T07:27:20+02:00</time>
      </trkpt>
      <trkpt lat="44.13466" lon="3.60018">
        <ele>1193</ele>
        <time>2021-06-06T07:27:25+02:00</time>
      </trkpt>
      <trkpt lat="44.13507" lon="3.60071">
        <ele>1188</ele>
        <time>2021-06-06T07:27:30+02:00</time>
      </trkpt>
      <trkpt lat="44.13511" lon="3.6005">
        <ele>1187</ele>
        <time>2021-06-06T07:27:35+02:00</time>
      </trkpt>
      <trkpt lat="44.13493" lon="3.60013">
        <ele>1186</ele>
        <time>2021-06-06T07:27:40+02:00</time>
      </trkpt>
      <trkpt lat="44.13568" lon="3.59959">
        <ele>1182</ele>
        <time>2021-06-06T07:27:45+02:00</time>
      </trkpt>
      <trkpt lat="44.13637" lon="3.59948">
        <ele>1181</ele>
        <time>2021-06-06T07:27:50+02:00</time>
      </trkpt>
      <trkpt lat="44.13712" lon="3.59875">
        <ele>1188</ele>
        <time>2021-06-06T07:27:55+02:00</time>
      </trkpt>
      <trkpt lat="44.13791" lon="3.59781">
        <ele>1196</ele>
        <time>2021-06-06T07:28:00+02:00</time>
      </trkpt>
      <trkpt lat="44.13846" lon="3.59721">
        <ele>1199</ele>
        <time>2021-06-06T07:28:05+02:00</time>
      </trkpt>
      <trkpt lat="44.13868" lon="3.59682">
        <ele>1203</ele>
        <time>2021-06-06T07:28:10+02:00</time>
      </trkpt>
      <trkpt lat="44.13879" lon="3.59614">
        <ele>1214</ele>
        <time>2021-06-06T07:28:15+02:00</time>
      </trkpt>
      <trkpt lat="44.13898" lon="3.59538">
        <ele>1223</ele>
        <time>2021-06-06T07:28:20+02:00</time>
      </trkpt>
      <trkpt lat="44.1392" lon="3.59465">
        <ele>1232</ele>
        <time>2021-06-06T07:28:25+02:00</time>
      </trkpt>
      <trkpt lat="44.13947" lon="3.59447">
        <ele>1234</ele>
        <time>2021-06-06T07:28:30+02:00</time>
      </trkpt>
      <trkpt lat="44.14017" lon="3.59439">
        <ele>1231</ele>
        <time>2021-06-06T07:28:35+02:00</time>
      </trkpt>
      <trkpt lat="44.14091" lon="3.59416">
        <ele>1234</ele>
        <time>2021-06-06T07:28:40+02:00</time>
      </trkpt>
      <trkpt lat="44.14187" lon="3.59366">
        <ele>1246</ele>
        <time>2021-06-06T07:28:45+02:00</time>
      </trkpt>
      <trkpt lat="44.14248" lon="3.59348">
        <ele>1254</ele>
        <time>2021-06-06T07:28:50+02:00</time>
      </trkpt>
      <trkpt lat="44.14332" lon="3.5933">
        <ele>1264</ele>
        <time>2021-06-06T07:28:55+02:00</time>
      </trkpt>
      <trkpt lat="44.14404" lon="3.59317">
        <ele>1263</ele>
        <time>2021-06-06T07:29:00+02:00</time>
      </trkpt>
      <trkpt lat="44.14474" lon="3.59304">
        <ele>1266</ele>
        <time>2021-06-06T07:29:05+02:00</time>
      </trkpt>
      <trkpt lat="44.14499" lon="3.59293">
        <ele>1268</ele>
        <time>2021-06-06T07:29:10+02:00</time>
      </trkpt>
      <trkpt lat="44.14546" lon="3.59264">
        <ele>1269</ele>
        <time>2021-06-06T07:29:15+02:00</time>
      </trkpt>
      <trkpt lat="44.14582" lon="3.59233">
        <ele>1270</ele>
        <time>2021-06-06T07:29:20+02:00</time>
      </trkpt>
      <trkpt lat="44.14602" lon="3.59184">
        <ele>1272</ele>
        <time>2021-06-06T07:29:25+02:00</time>
      </trkpt>
      <trkpt lat="44.14623" lon="3.59155">
        <ele>1270</ele>
        <time>2021-06-06T07:29:30+02:00</time>
      </trkpt>
      <trkpt lat="44.14641" lon="3.5911">
        <ele>1268</ele>
        <time>2021-06-06T07:29:35+02:00</time>
      </trkpt>
      <trkpt lat="44.14663" lon="3.59058">
        <ele>1265</ele>
        <time>2021-06-06T07:29:40+02:00</time>
      </trkpt>
      <trkpt lat="44.14607" lon="3.59079">
        <ele>1273</ele>
        <time>2021-06-06T07:29:45+02:00</time>
      </trkpt>
      <trkpt lat="44.14557" lon="3.59124">
        <ele>1280</ele>
        <time>2021-06-06T07:29:50+02:00</time>
      </trkpt>
      <trkpt lat="44.14428" lon="3.59147">
        <ele>1290</ele>
        <time>2021-06-06T07:29:55+02:00</time>
      </trkpt>
      <trkpt lat="44.14345" lon="3.5916">
        <ele>1295</ele>
        <time>2021-06-06T07:30:00+02:00</time>
      </trkpt>
      <trkpt lat="44.14307" lon="3.59173">
        <ele>1297</ele>
        <time>2021-06-06T07:30:05+02:00</time>
      </trkpt>
      <trkpt lat="44.14201" lon="3.59131">
        <ele>1304</ele>
        <time>2021-06-06T07:30:10+02:00</time>
      </trkpt>
      <trkpt lat="44.14154" lon="3.59137">
        <ele>1309</ele>
        <time>2021-06-06T07:30:15+02:00</time>
      </trkpt>
      <trkpt lat="44.14063" lon="3.59165">
        <ele>1316</ele>
        <time>2021-06-06T07:30:20+02:00</time>
      </trkpt>
      <trkpt lat="44.13993" lon="3.59152">
        <ele>1324</ele>
        <time>2021-06-06T07:30:25+02:00</time>
      </trkpt>
      <trkpt lat="44.13834" lon="3.59124">
        <ele>1334</ele>
        <time>2021-06-06T07:30:30+02:00</time>
      </trkpt>
      <trkpt lat="44.13697" lon="3.59168">
        <ele>1354</ele>
        <time>2021-06-06T07:30:35+02:00</time>
      </trkpt>
      <trkpt lat="44.13636" lon="3.59217">
        <ele>1361</ele>
        <time>2021-06-06T07:30:40+02:00</time>
      </trkpt>
      <trkpt lat="44.1357" lon="3.59244">
        <ele>1363</ele>
        <time>2021-06-06T07:30:45+02:00</time>
      </trkpt>
      <trkpt lat="44.13424" lon="3.59189">
        <ele>1355</ele>
        <time>2021-06-06T07:30:50+02:00</time>
      </trkpt>
      <trkpt lat="44.13086" lon="3.591">
        <ele>1408</ele>
        <time>2021-06-06T07:30:55+02:00</time>
      </trkpt>
      <trkpt lat="44.13014" lon="3.59069">
        <ele>1411</ele>
        <time>2021-06-06T07:31:00+02:00</time>
      </trkpt>
      <trkpt lat="44.12908" lon="3.59037">
        <ele>1409</ele>
        <time>2021-06-06T07:31:05+02:00</time>
      </trkpt>
      <trkpt lat="44.12815" lon="3.58988">
        <ele>1416</ele>
        <time>2021-06-06T07:31:10+02:00</time>
      </trkpt>
      <trkpt lat="44.12766" lon="3.59003">
        <ele>1419</ele>
        <time>2021-06-06T07:31:15+02:00</time>
      </trkpt>
      <trkpt lat="44.12691" lon="3.59071">
        <ele>1425</ele>
        <time>2021-06-06T07:31:20+02:00</time>
      </trkpt>
      <trkpt lat="44.12606" lon="3.59126">
        <ele>1432</ele>
        <time>2021-06-06T07:31:25+02:00</time>
      </trkpt>
      <trkpt lat="44.12592" lon="3.5916">
        <ele>1436</ele>
        <time>2021-06-06T07:31:30+02:00</time>
      </trkpt>
      <trkpt lat="44.12481" lon="3.59171">
        <ele>1438</ele>
        <time>2021-06-06T07:31:35+02:00</time>
      </trkpt>
      <trkpt lat="44.12366" lon="3.59178">
        <ele>1438</ele>
        <time>2021-06-06T07:31:40+02:00</time>
      </trkpt>
      <trkpt lat="44.12342" lon="3.59181">
        <ele>1438</ele>
        <time>2021-06-06T07:31:45+02:00</time>
      </trkpt>
      <trkpt lat="44.12335" lon="3.59197">
        <ele>1438</ele>
        <time>2021-06-06T07:31:50+02:00</time>
      </trkpt>
      <trkpt lat="44.12104" lon="3.59215">
        <ele>1464</ele>
        <time>2021-06-06T07:31:55+02:00</time>
      </trkpt>
      <trkpt lat="44.12001" lon="3.59228">
        <ele>1463</ele>
        <time>2021-06-06T07:32:00+02:00</time>
      </trkpt>
      <trkpt lat="44.11982" lon="3.59241">
        <ele>1451</ele>
        <time>2021-06-06T07:32:05+02:00</time>
      </trkpt>
      <trkpt lat="44.11972" lon="3.59225">
        <ele>1454</ele>
        <time>2021-06-06T07:32:10+02:00</time>
      </trkpt>
      <trkpt lat="44.11977" lon="3.59197">
        <ele>1468</ele>
        <time>2021-06-06T07:32:15+02:00</time>
      </trkpt>
      <trkpt lat="44.12002" lon="3.59184">
        <ele>1478</ele>
        <time>2021-06-06T07:32:20+02:00</time>
      </trkpt>
      <trkpt lat="44.12006" lon="3.59163">
        <ele>1484</ele>
        <time>2021-06-06T07:32:25+02:00</time>
      </trkpt>
      <trkpt lat="44.11997" lon="3.59142">
        <ele>1487</ele>
        <time>2021-06-06T07:32:30+02:00</time>
      </trkpt>
      <trkpt lat="44.1197" lon="3.59032">
        <ele>1498</ele>
        <time>2021-06-06T07:32:35+02:00</time>
      </trkpt>
      <trkpt lat="44.11934" lon="3.58938">
        <ele>1506</ele>
        <time>2021-06-06T07:32:40+02:00</time>
      </trkpt>
      <trkpt lat="44.1191" lon="3.58849">
        <ele>1509</ele>
        <time>2021-06-06T07:32:45+02:00</time>
      </trkpt>
      <trkpt lat="44.11892" lon="3.5881">
        <ele>1503</ele>
        <time>2021-06-06T07:32:50+02:00</time>
      </trkpt>
      <trkpt lat="44.11887" lon="3.58789">
        <ele>1499</ele>
        <time>2021-06-06T07:32:55+02:00</time>
      </trkpt>
      <trkpt lat="44.11914" lon="3.58771">
        <ele>1499</ele>
        <time>2021-06-06T07:33:00+02:00</time>
      </trkpt>
      <trkpt lat="44.11928" lon="3.58745">
        <ele>1496</ele>
        <time>2021-06-06T07:33:05+02:00</time>
      </trkpt>
      <trkpt lat="44.11952" lon="3.58701">
        <ele>1495</ele>
        <time>2021-06-06T07:33:10+02:00</time>
      </trkpt>
      <trkpt lat="44.11961" lon="3.58693">
        <ele>1496</ele>
        <time>2021-06-06T07:33:15+02:00</time>
      </trkpt>
      <trkpt lat="44.11984" lon="3.58672">
        <ele>1502</ele>
        <time>2021-06-06T07:33:20+02:00</time>
      </trkpt>
      <trkpt lat="44.12016" lon="3.58635">
        <ele>1510</ele>
        <time>2021-06-06T07:33:25+02:00</time>
      </trkpt>
      <trkpt lat="44.12067" lon="3.5862">
        <ele>1516</ele>
        <time>2021-06-06T07:33:30+02:00</time>
      </trkpt>
      <trkpt lat="44.12103" lon="3.58599">
        <ele>1521</ele>
        <time>2021-06-06T07:33:35+02:00</time>
      </trkpt>
      <trkpt lat="44.12169" lon="3.58482">
        <ele>1533</ele>
        <time>2021-06-06T07:33:40+02:00</time>
      </trkpt>
      <trkpt lat="44.12182" lon="3.58445">
        <ele>1535</ele>
        <time>2021-06-06T07:33:45+02:00</time>
      </trkpt>
      <trkpt lat="44.12146" lon="3.58414">
        <ele>1543</ele>
        <time>2021-06-06T07:33:50+02:00</time>
      </trkpt>
      <trkpt lat="44.12148" lon="3.58385">
        <ele>1543</ele>
        <time>2021-06-06T07:33:55+02:00</time>
      </trkpt>
      <trkpt lat="44.12153" lon="3.5833">
        <ele>1544</ele>
        <time>2021-06-06T07:34:00+02:00</time>
      </trkpt>
      <trkpt lat="44.12155" lon="3.5826">
        <ele>1550</ele>
        <time>2021-06-06T07:34:05+02:00</time>
      </trkpt>
      <trkpt lat="44.12151" lon="3.58226">
        <ele>1550</ele>
        <time>2021-06-06T07:34:10+02:00</time>
      </trkpt>
      <trkpt lat="44.12153" lon="3.58202">
        <ele>1551</ele>
        <time>2021-06-06T07:34:15+02:00</time>
      </trkpt>
      <trkpt lat="44.12167" lon="3.58163">
        <ele>1555</ele>
        <time>2021-06-06T07:34:20+02:00</time>
      </trkpt>
      <trkpt lat="44.12171" lon="3.58106">
        <ele>1553</ele>
        <time>2021-06-06T07:34:25+02:00</time>
      </trkpt>
      <trkpt lat="44.12142" lon="3.58046">
        <ele>1548</ele>
        <time>2021-06-06T07:34:30+02:00</time>
      </trkpt>
      <trkpt lat="44.12137" lon="3.5802">
        <ele>1547</ele>
        <time>2021-06-06T07:34:35+02:00</time>
      </trkpt>
      <trkpt lat="44.12135" lon="3.57999">
        <ele>1547</ele>
        <time>2021-06-06T07:34:40+02:00</time>
      </trkpt>
      <trkpt lat="44.12117" lon="3.58004">
        <ele>1543</ele>
        <time>2021-06-06T07:34:45+02:00</time>
      </trkpt>
      <trkpt lat="44.12117" lon="3.57944">
        <ele>1548</ele>
        <time>2021-06-06T07:34:50+02:00</time>
      </trkpt>
      <trkpt lat="44.12113" lon="3.57952">
        <ele>1547</ele>
        <time>2021-06-06T07:34:55+02:00</time>
      </trkpt>
    </trkseg>
  </trk>
</gpx>